sensor_id;sensor_type;location;lat;lon;timestamp;noise_LAeq;noise_LA_min;noise_LA_max;noise_LA01;noise_LA95
46393;Laerm;32099;53.588;10.176;2023-08-01T00:00:13;38.23;34.76;51.57;;
46393;Laerm;32099;53.588;10.176;2023-08-01T00:02:39;37.97;34.79;53.17;;
46393;Laerm;32099;53.588;10.176;2023-08-01T00:05:07;38.13;34.34;51.97;;
46393;Laerm;32099;53.588;10.176;2023-08-01T00:07:32;38.13;33.78;58.47;;
46393;Laerm;32099;53.588;10.176;2023-08-01T00:09:58;37.74;34.23;57.62;;
46393;Laerm;32099;53.588;10.176;2023-08-01T00:12:24;37.22;34.30;48.46;;
46393;Laerm;32099;53.588;10.176;2023-08-01T00:14:49;37.76;34.43;49.76;;
46393;Laerm;32099;53.588;10.176;2023-08-01T00:17:15;37.64;34.26;54.47;;
46393;Laerm;32099;53.588;10.176;2023-08-01T00:19:40;38.36;34.85;51.88;;
46393;Laerm;32099;53.588;10.176;2023-08-01T00:22:06;38.59;34.12;67.00;;
46393;Laerm;32099;53.588;10.176;2023-08-01T00:24:31;38.07;34.64;53.45;;
46393;Laerm;32099;53.588;10.176;2023-08-01T00:26:56;38.38;34.06;62.50;;
46393;Laerm;32099;53.588;10.176;2023-08-01T00:29:22;37.07;34.04;53.44;;
46393;Laerm;32099;53.588;10.176;2023-08-01T00:31:48;37.25;33.57;52.60;;
46393;Laerm;32099;53.588;10.176;2023-08-01T00:34:13;37.46;33.84;54.11;;
46393;Laerm;32099;53.588;10.176;2023-08-01T00:36:38;37.46;33.81;51.95;;
46393;Laerm;32099;53.588;10.176;2023-08-01T00:39:04;37.25;33.68;53.95;;
46393;Laerm;32099;53.588;10.176;2023-08-01T00:41:29;39.30;34.47;55.46;;
46393;Laerm;32099;53.588;10.176;2023-08-01T00:43:54;38.78;34.32;54.97;;
46393;Laerm;32099;53.588;10.176;2023-08-01T00:46:20;38.57;33.67;55.41;;
46393;Laerm;32099;53.588;10.176;2023-08-01T00:48:45;50.88;34.13;73.28;;
46393;Laerm;32099;53.588;10.176;2023-08-01T00:51:11;37.06;33.71;53.43;;
46393;Laerm;32099;53.588;10.176;2023-08-01T00:53:37;37.18;33.62;52.40;;
46393;Laerm;32099;53.588;10.176;2023-08-01T00:56:03;37.60;33.76;57.90;;
46393;Laerm;32099;53.588;10.176;2023-08-01T00:58:29;36.61;33.59;53.36;;
46393;Laerm;32099;53.588;10.176;2023-08-01T01:00:54;36.70;33.47;59.50;;
46393;Laerm;32099;53.588;10.176;2023-08-01T01:03:21;36.84;33.55;53.66;;
46393;Laerm;32099;53.588;10.176;2023-08-01T01:05:53;37.23;34.04;50.55;;
46393;Laerm;32099;53.588;10.176;2023-08-01T01:08:21;37.44;33.90;56.56;;
46393;Laerm;32099;53.588;10.176;2023-08-01T01:10:46;44.87;34.22;54.87;;
46393;Laerm;32099;53.588;10.176;2023-08-01T01:13:12;41.40;35.81;62.54;;
46393;Laerm;32099;53.588;10.176;2023-08-01T01:15:37;39.18;35.05;55.43;;
46393;Laerm;32099;53.588;10.176;2023-08-01T01:18:02;38.67;34.81;61.69;;
46393;Laerm;32099;53.588;10.176;2023-08-01T01:20:33;39.82;35.16;57.70;;
46393;Laerm;32099;53.588;10.176;2023-08-01T01:23:00;38.85;34.78;56.00;;
46393;Laerm;32099;53.588;10.176;2023-08-01T01:25:26;46.63;34.71;67.66;;
46393;Laerm;32099;53.588;10.176;2023-08-01T01:27:53;45.17;34.72;65.40;;
46393;Laerm;32099;53.588;10.176;2023-08-01T01:30:20;48.80;34.69;69.42;;
46393;Laerm;32099;53.588;10.176;2023-08-01T01:32:46;37.83;33.91;53.44;;
46393;Laerm;32099;53.588;10.176;2023-08-01T01:35:11;37.39;34.16;53.48;;
46393;Laerm;32099;53.588;10.176;2023-08-01T01:37:37;38.70;34.68;54.83;;
46393;Laerm;32099;53.588;10.176;2023-08-01T01:40:02;38.04;34.09;53.98;;
46393;Laerm;32099;53.588;10.176;2023-08-01T01:42:27;37.91;34.39;52.69;;
46393;Laerm;32099;53.588;10.176;2023-08-01T01:44:53;38.24;34.20;54.22;;
46393;Laerm;32099;53.588;10.176;2023-08-01T01:47:18;38.07;33.81;52.57;;
46393;Laerm;32099;53.588;10.176;2023-08-01T01:49:43;38.27;33.53;60.46;;
46393;Laerm;32099;53.588;10.176;2023-08-01T01:52:08;38.25;34.45;54.28;;
46393;Laerm;32099;53.588;10.176;2023-08-01T01:54:34;37.20;33.77;46.81;;
46393;Laerm;32099;53.588;10.176;2023-08-01T01:56:59;36.93;34.06;50.98;;
46393;Laerm;32099;53.588;10.176;2023-08-01T01:59:24;36.55;33.73;51.09;;
46393;Laerm;32099;53.588;10.176;2023-08-01T02:01:50;37.27;33.60;52.94;;
46393;Laerm;32099;53.588;10.176;2023-08-01T02:04:15;37.51;34.36;49.00;;
46393;Laerm;32099;53.588;10.176;2023-08-01T02:06:40;37.63;34.46;53.69;;
46393;Laerm;32099;53.588;10.176;2023-08-01T02:09:07;38.93;34.48;63.86;;
46393;Laerm;32099;53.588;10.176;2023-08-01T02:11:32;42.59;34.52;68.25;;
46393;Laerm;32099;53.588;10.176;2023-08-01T02:13:57;44.46;34.17;72.81;;
46393;Laerm;32099;53.588;10.176;2023-08-01T02:16:23;37.99;34.47;51.97;;
46393;Laerm;32099;53.588;10.176;2023-08-01T02:18:48;37.86;34.31;53.58;;
46393;Laerm;32099;53.588;10.176;2023-08-01T02:21:13;37.57;34.25;50.88;;
46393;Laerm;32099;53.588;10.176;2023-08-01T02:23:39;37.79;34.68;47.45;;
46393;Laerm;32099;53.588;10.176;2023-08-01T02:26:04;37.61;34.43;49.17;;
46393;Laerm;32099;53.588;10.176;2023-08-01T02:28:29;37.10;34.55;52.66;;
46393;Laerm;32099;53.588;10.176;2023-08-01T02:30:54;47.31;34.24;70.28;;
46393;Laerm;32099;53.588;10.176;2023-08-01T02:33:20;37.65;34.44;50.28;;
46393;Laerm;32099;53.588;10.176;2023-08-01T02:35:48;37.10;34.36;47.56;;
46393;Laerm;32099;53.588;10.176;2023-08-01T02:38:13;38.49;34.32;50.80;;
46393;Laerm;32099;53.588;10.176;2023-08-01T02:40:39;37.81;34.40;48.28;;
46393;Laerm;32099;53.588;10.176;2023-08-01T02:43:04;37.96;33.95;51.92;;
46393;Laerm;32099;53.588;10.176;2023-08-01T02:45:29;37.82;34.40;50.27;;
46393;Laerm;32099;53.588;10.176;2023-08-01T02:47:55;41.58;34.84;50.86;;
46393;Laerm;32099;53.588;10.176;2023-08-01T02:50:20;37.51;34.33;47.72;;
46393;Laerm;32099;53.588;10.176;2023-08-01T02:52:45;38.19;34.49;48.04;;
46393;Laerm;32099;53.588;10.176;2023-08-01T02:55:10;37.26;34.31;50.99;;
46393;Laerm;32099;53.588;10.176;2023-08-01T02:57:36;38.15;34.48;53.81;;
46393;Laerm;32099;53.588;10.176;2023-08-01T03:00:01;37.68;34.61;49.29;;
46393;Laerm;32099;53.588;10.176;2023-08-01T03:02:30;37.34;33.92;51.05;;
46393;Laerm;32099;53.588;10.176;2023-08-01T03:04:56;37.65;34.20;46.89;;
46393;Laerm;32099;53.588;10.176;2023-08-01T03:07:22;45.34;35.08;65.12;;
46393;Laerm;32099;53.588;10.176;2023-08-01T03:09:47;38.16;35.22;56.67;;
46393;Laerm;32099;53.588;10.176;2023-08-01T03:12:12;38.40;35.50;46.62;;
46393;Laerm;32099;53.588;10.176;2023-08-01T03:14:37;38.47;35.12;53.05;;
46393;Laerm;32099;53.588;10.176;2023-08-01T03:17:03;39.79;35.41;54.53;;
46393;Laerm;32099;53.588;10.176;2023-08-01T03:19:28;46.11;35.76;64.76;;
46393;Laerm;32099;53.588;10.176;2023-08-01T03:21:53;38.46;35.53;45.55;;
46393;Laerm;32099;53.588;10.176;2023-08-01T03:24:19;39.11;35.62;49.86;;
46393;Laerm;32099;53.588;10.176;2023-08-01T03:26:44;45.41;35.82;62.92;;
46393;Laerm;32099;53.588;10.176;2023-08-01T03:29:09;39.53;35.60;54.36;;
46393;Laerm;32099;53.588;10.176;2023-08-01T03:31:35;47.32;35.69;66.65;;
46393;Laerm;32099;53.588;10.176;2023-08-01T03:34:00;38.43;35.27;50.39;;
46393;Laerm;32099;53.588;10.176;2023-08-01T03:36:25;38.93;35.91;47.07;;
46393;Laerm;32099;53.588;10.176;2023-08-01T03:38:51;38.89;35.25;45.72;;
46393;Laerm;32099;53.588;10.176;2023-08-01T03:41:16;39.39;35.83;48.00;;
46393;Laerm;32099;53.588;10.176;2023-08-01T03:43:41;38.45;35.16;48.27;;
46393;Laerm;32099;53.588;10.176;2023-08-01T03:46:07;39.36;35.86;46.83;;
46393;Laerm;32099;53.588;10.176;2023-08-01T03:48:32;39.85;35.76;54.64;;
46393;Laerm;32099;53.588;10.176;2023-08-01T03:50:58;39.11;35.61;48.83;;
46393;Laerm;32099;53.588;10.176;2023-08-01T03:53:23;38.63;35.67;47.26;;
46393;Laerm;32099;53.588;10.176;2023-08-01T03:55:48;46.34;35.96;65.42;;
46393;Laerm;32099;53.588;10.176;2023-08-01T03:58:14;48.71;35.81;70.10;;
46393;Laerm;32099;53.588;10.176;2023-08-01T04:00:39;39.17;36.15;50.74;;
46393;Laerm;32099;53.588;10.176;2023-08-01T04:03:04;47.50;36.24;65.89;;
46393;Laerm;32099;53.588;10.176;2023-08-01T04:05:30;49.47;35.70;67.93;;
46393;Laerm;32099;53.588;10.176;2023-08-01T04:07:55;43.08;36.19;57.68;;
46393;Laerm;32099;53.588;10.176;2023-08-01T04:10:21;39.14;35.76;50.87;;
46393;Laerm;32099;53.588;10.176;2023-08-01T04:12:47;39.18;36.13;52.29;;
46393;Laerm;32099;53.588;10.176;2023-08-01T04:15:12;45.20;36.16;60.84;;
46393;Laerm;32099;53.588;10.176;2023-08-01T04:17:38;52.10;36.58;72.82;;
46393;Laerm;32099;53.588;10.176;2023-08-01T04:20:04;42.96;36.39;55.10;;
46393;Laerm;32099;53.588;10.176;2023-08-01T04:22:29;46.05;36.48;64.78;;
46393;Laerm;32099;53.588;10.176;2023-08-01T04:24:54;39.87;35.89;48.52;;
46393;Laerm;32099;53.588;10.176;2023-08-01T04:27:20;50.89;36.75;69.67;;
46393;Laerm;32099;53.588;10.176;2023-08-01T04:29:45;48.64;36.28;69.85;;
46393;Laerm;32099;53.588;10.176;2023-08-01T04:32:11;44.60;36.07;66.62;;
46393;Laerm;32099;53.588;10.176;2023-08-01T04:34:39;45.80;36.59;60.43;;
46393;Laerm;32099;53.588;10.176;2023-08-01T04:37:04;40.06;35.67;50.19;;
46393;Laerm;32099;53.588;10.176;2023-08-01T04:39:29;39.82;35.98;48.92;;
46393;Laerm;32099;53.588;10.176;2023-08-01T04:41:54;39.57;36.52;48.05;;
46393;Laerm;32099;53.588;10.176;2023-08-01T04:44:20;51.50;36.85;69.00;;
46393;Laerm;32099;53.588;10.176;2023-08-01T04:46:45;49.30;36.52;67.73;;
46393;Laerm;32099;53.588;10.176;2023-08-01T04:49:10;50.22;36.16;69.34;;
46393;Laerm;32099;53.588;10.176;2023-08-01T04:51:36;51.45;36.51;69.19;;
46393;Laerm;32099;53.588;10.176;2023-08-01T04:54:01;44.84;37.36;65.53;;
46393;Laerm;32099;53.588;10.176;2023-08-01T04:56:26;40.32;36.54;51.03;;
46393;Laerm;32099;53.588;10.176;2023-08-01T04:58:52;48.62;36.48;68.19;;
46393;Laerm;32099;53.588;10.176;2023-08-01T05:01:17;47.29;36.47;66.31;;
46393;Laerm;32099;53.588;10.176;2023-08-01T05:03:42;40.71;37.00;52.85;;
46393;Laerm;32099;53.588;10.176;2023-08-01T05:06:07;40.71;36.93;50.45;;
46393;Laerm;32099;53.588;10.176;2023-08-01T05:08:33;41.78;36.10;53.72;;
46393;Laerm;32099;53.588;10.176;2023-08-01T05:10:58;51.70;36.99;70.94;;
46393;Laerm;32099;53.588;10.176;2023-08-01T05:13:23;58.00;37.59;80.28;;
46393;Laerm;32099;53.588;10.176;2023-08-01T05:15:49;50.57;36.80;69.65;;
46393;Laerm;32099;53.588;10.176;2023-08-01T05:18:16;47.86;36.56;65.76;;
46393;Laerm;32099;53.588;10.176;2023-08-01T05:20:42;46.87;36.87;63.40;;
46393;Laerm;32099;53.588;10.176;2023-08-01T05:23:07;49.92;38.57;67.90;;
46393;Laerm;32099;53.588;10.176;2023-08-01T05:25:32;40.89;38.86;50.51;;
46393;Laerm;32099;53.588;10.176;2023-08-01T05:27:57;41.39;38.97;58.17;;
46393;Laerm;32099;53.588;10.176;2023-08-01T05:30:24;42.83;37.97;63.72;;
46393;Laerm;32099;53.588;10.176;2023-08-01T05:32:50;41.17;37.66;48.80;;
46393;Laerm;32099;53.588;10.176;2023-08-01T05:35:15;48.42;38.10;63.26;;
46393;Laerm;32099;53.588;10.176;2023-08-01T05:37:41;51.66;41.25;65.00;;
46393;Laerm;32099;53.588;10.176;2023-08-01T05:40:06;51.22;38.79;66.39;;
46393;Laerm;32099;53.588;10.176;2023-08-01T05:42:32;48.16;43.14;64.32;;
46393;Laerm;32099;53.588;10.176;2023-08-01T05:44:57;48.04;43.23;61.47;;
46393;Laerm;32099;53.588;10.176;2023-08-01T05:47:23;48.51;43.23;61.79;;
46393;Laerm;32099;53.588;10.176;2023-08-01T05:49:48;48.24;42.94;61.89;;
46393;Laerm;32099;53.588;10.176;2023-08-01T05:52:14;52.61;43.51;70.48;;
46393;Laerm;32099;53.588;10.176;2023-08-01T05:54:39;53.47;43.09;76.59;;
46393;Laerm;32099;53.588;10.176;2023-08-01T05:57:05;48.59;41.53;71.13;;
46393;Laerm;32099;53.588;10.176;2023-08-01T05:59:31;45.72;39.01;62.75;;
46393;Laerm;32099;53.588;10.176;2023-08-01T06:01:56;56.47;39.35;72.23;;
46393;Laerm;32099;53.588;10.176;2023-08-01T06:04:21;41.70;39.07;48.40;;
46393;Laerm;32099;53.588;10.176;2023-08-01T06:06:47;48.57;39.03;65.94;;
46393;Laerm;32099;53.588;10.176;2023-08-01T06:09:12;56.71;44.17;69.64;;
46393;Laerm;32099;53.588;10.176;2023-08-01T06:11:37;51.05;43.02;67.25;;
46393;Laerm;32099;53.588;10.176;2023-08-01T06:14:03;48.61;42.42;65.70;;
46393;Laerm;32099;53.588;10.176;2023-08-01T06:16:28;50.72;42.21;68.20;;
46393;Laerm;32099;53.588;10.176;2023-08-01T06:18:53;48.08;41.97;60.94;;
46393;Laerm;32099;53.588;10.176;2023-08-01T06:21:18;50.33;42.40;68.83;;
46393;Laerm;32099;53.588;10.176;2023-08-01T06:23:44;49.39;42.60;68.69;;
46393;Laerm;32099;53.588;10.176;2023-08-01T06:26:09;49.85;42.10;67.09;;
46393;Laerm;32099;53.588;10.176;2023-08-01T06:28:34;54.21;42.81;71.02;;
46393;Laerm;32099;53.588;10.176;2023-08-01T06:31:00;48.38;42.09;64.81;;
46393;Laerm;32099;53.588;10.176;2023-08-01T06:33:25;54.36;42.44;68.88;;
46393;Laerm;32099;53.588;10.176;2023-08-01T06:35:50;51.48;38.72;68.08;;
46393;Laerm;32099;53.588;10.176;2023-08-01T06:38:15;55.02;43.30;68.57;;
46393;Laerm;32099;53.588;10.176;2023-08-01T06:40:41;54.12;43.06;69.49;;
46393;Laerm;32099;53.588;10.176;2023-08-01T06:43:06;47.24;42.54;61.58;;
46393;Laerm;32099;53.588;10.176;2023-08-01T06:45:31;49.08;42.67;64.07;;
46393;Laerm;32099;53.588;10.176;2023-08-01T06:47:56;55.03;42.67;72.86;;
46393;Laerm;32099;53.588;10.176;2023-08-01T06:50:22;53.84;40.05;72.31;;
46393;Laerm;32099;53.588;10.176;2023-08-01T06:52:48;52.76;39.26;70.35;;
46393;Laerm;32099;53.588;10.176;2023-08-01T06:55:13;54.93;42.00;76.36;;
46393;Laerm;32099;53.588;10.176;2023-08-01T06:57:39;48.86;39.66;67.70;;
46393;Laerm;32099;53.588;10.176;2023-08-01T07:00:05;57.72;42.25;73.44;;
46393;Laerm;32099;53.588;10.176;2023-08-01T07:02:31;58.35;43.31;70.46;;
46393;Laerm;32099;53.588;10.176;2023-08-01T07:04:56;59.22;43.71;72.20;;
46393;Laerm;32099;53.588;10.176;2023-08-01T07:07:21;58.01;41.77;71.72;;
46393;Laerm;32099;53.588;10.176;2023-08-01T07:09:47;45.93;35.01;67.60;;
46393;Laerm;32099;53.588;10.176;2023-08-01T07:12:12;49.69;35.86;69.31;;
46393;Laerm;32099;53.588;10.176;2023-08-01T07:14:37;54.56;37.04;72.18;;
46393;Laerm;32099;53.588;10.176;2023-08-01T07:17:03;56.85;37.55;85.77;;
46393;Laerm;32099;53.588;10.176;2023-08-01T07:19:28;40.74;36.44;53.33;;
46393;Laerm;32099;53.588;10.176;2023-08-01T07:21:53;44.06;37.04;59.72;;
46393;Laerm;32099;53.588;10.176;2023-08-01T07:24:19;41.15;36.61;51.41;;
46393;Laerm;32099;53.588;10.176;2023-08-01T07:26:44;49.50;37.43;66.84;;
46393;Laerm;32099;53.588;10.176;2023-08-01T07:29:09;42.06;38.24;48.87;;
46393;Laerm;32099;53.588;10.176;2023-08-01T07:31:36;52.22;38.72;65.33;;
46393;Laerm;32099;53.588;10.176;2023-08-01T07:34:02;41.28;36.98;53.98;;
46393;Laerm;32099;53.588;10.176;2023-08-01T07:36:27;55.25;38.33;71.34;;
46393;Laerm;32099;53.588;10.176;2023-08-01T07:38:53;48.38;38.08;66.47;;
46393;Laerm;32099;53.588;10.176;2023-08-01T07:41:19;43.43;37.83;55.09;;
46393;Laerm;32099;53.588;10.176;2023-08-01T07:43:44;41.80;38.48;49.09;;
46393;Laerm;32099;53.588;10.176;2023-08-01T07:46:09;49.31;37.80;65.54;;
46393;Laerm;32099;53.588;10.176;2023-08-01T07:48:36;42.03;37.16;53.21;;
46393;Laerm;32099;53.588;10.176;2023-08-01T07:51:02;52.47;37.07;67.84;;
46393;Laerm;32099;53.588;10.176;2023-08-01T07:53:29;41.96;36.44;59.67;;
46393;Laerm;32099;53.588;10.176;2023-08-01T07:55:55;49.02;37.82;67.74;;
46393;Laerm;32099;53.588;10.176;2023-08-01T07:58:21;49.67;36.87;71.78;;
46393;Laerm;32099;53.588;10.176;2023-08-01T08:00:46;55.62;39.92;69.80;;
46393;Laerm;32099;53.588;10.176;2023-08-01T08:03:11;51.71;37.84;75.04;;
46393;Laerm;32099;53.588;10.176;2023-08-01T08:05:37;55.07;38.54;72.45;;
46393;Laerm;32099;53.588;10.176;2023-08-01T08:08:04;52.90;38.02;66.65;;
46393;Laerm;32099;53.588;10.176;2023-08-01T08:10:30;51.24;38.66;63.85;;
46393;Laerm;32099;53.588;10.176;2023-08-01T08:12:55;55.49;43.83;74.66;;
46393;Laerm;32099;53.588;10.176;2023-08-01T08:15:20;54.78;42.44;68.28;;
46393;Laerm;32099;53.588;10.176;2023-08-01T08:17:46;54.01;43.04;65.27;;
46393;Laerm;32099;53.588;10.176;2023-08-01T08:20:11;55.19;44.19;66.53;;
46393;Laerm;32099;53.588;10.176;2023-08-01T08:22:36;51.20;40.93;63.41;;
46393;Laerm;32099;53.588;10.176;2023-08-01T08:25:02;50.70;43.86;75.77;;
46393;Laerm;32099;53.588;10.176;2023-08-01T08:27:27;53.52;43.62;66.96;;
46393;Laerm;32099;53.588;10.176;2023-08-01T08:29:52;51.81;42.07;67.18;;
46393;Laerm;32099;53.588;10.176;2023-08-01T08:32:18;52.49;40.71;70.53;;
46393;Laerm;32099;53.588;10.176;2023-08-01T08:34:43;48.37;42.11;64.63;;
46393;Laerm;32099;53.588;10.176;2023-08-01T08:37:08;47.97;41.54;62.07;;
46393;Laerm;32099;53.588;10.176;2023-08-01T08:39:34;54.85;41.20;71.85;;
46393;Laerm;32099;53.588;10.176;2023-08-01T08:41:59;48.08;39.39;62.24;;
46393;Laerm;32099;53.588;10.176;2023-08-01T08:44:24;47.28;39.32;62.66;;
46393;Laerm;32099;53.588;10.176;2023-08-01T08:46:53;54.55;42.26;67.63;;
46393;Laerm;32099;53.588;10.176;2023-08-01T08:49:24;47.21;39.43;64.86;;
46393;Laerm;32099;53.588;10.176;2023-08-01T08:51:52;51.54;37.87;67.62;;
46393;Laerm;32099;53.588;10.176;2023-08-01T08:54:17;51.67;36.60;68.94;;
46393;Laerm;32099;53.588;10.176;2023-08-01T08:56:43;48.76;38.10;65.95;;
46393;Laerm;32099;53.588;10.176;2023-08-01T08:59:09;53.28;36.37;67.55;;
46393;Laerm;32099;53.588;10.176;2023-08-01T09:01:36;49.22;36.34;67.22;;
46393;Laerm;32099;53.588;10.176;2023-08-01T09:04:01;51.51;39.96;71.22;;
46393;Laerm;32099;53.588;10.176;2023-08-01T09:06:32;58.28;37.60;79.72;;
46393;Laerm;32099;53.588;10.176;2023-08-01T09:09:10;51.07;39.63;70.02;;
46393;Laerm;32099;53.588;10.176;2023-08-01T09:11:45;49.95;41.14;66.46;;
46393;Laerm;32099;53.588;10.176;2023-08-01T09:14:11;59.53;40.82;72.22;;
46393;Laerm;32099;53.588;10.176;2023-08-01T09:16:36;57.01;41.96;75.07;;
46393;Laerm;32099;53.588;10.176;2023-08-01T09:19:02;53.79;42.57;69.67;;
46393;Laerm;32099;53.588;10.176;2023-08-01T09:21:32;52.68;43.33;65.45;;
46393;Laerm;32099;53.588;10.176;2023-08-01T09:24:13;57.39;40.57;72.31;;
46393;Laerm;32099;53.588;10.176;2023-08-01T09:26:39;57.15;41.15;72.03;;
46393;Laerm;32099;53.588;10.176;2023-08-01T09:29:06;56.28;41.48;71.74;;
46393;Laerm;32099;53.588;10.176;2023-08-01T09:31:42;55.29;42.63;69.75;;
46393;Laerm;32099;53.588;10.176;2023-08-01T09:34:22;50.77;43.23;66.00;;
46393;Laerm;32099;53.588;10.176;2023-08-01T09:36:47;52.51;43.09;68.53;;
46393;Laerm;32099;53.588;10.176;2023-08-01T09:39:20;53.57;43.29;65.92;;
46393;Laerm;32099;53.588;10.176;2023-08-01T09:41:59;51.44;43.18;64.98;;
46393;Laerm;32099;53.588;10.176;2023-08-01T09:44:25;54.24;43.06;71.50;;
46393;Laerm;32099;53.588;10.176;2023-08-01T09:49:24;52.58;41.66;67.48;;
46393;Laerm;32099;53.588;10.176;2023-08-01T09:51:50;50.91;44.19;65.73;;
46393;Laerm;32099;53.588;10.176;2023-08-01T09:54:16;51.81;43.64;66.00;;
46393;Laerm;32099;53.588;10.176;2023-08-01T09:56:44;49.50;40.98;64.73;;
46393;Laerm;32099;53.588;10.176;2023-08-01T09:59:10;51.09;38.86;71.24;;
46393;Laerm;32099;53.588;10.176;2023-08-01T10:01:38;55.84;40.94;68.55;;
46393;Laerm;32099;53.588;10.176;2023-08-01T10:04:04;60.20;44.30;74.51;;
46393;Laerm;32099;53.588;10.176;2023-08-01T10:06:33;61.02;42.72;76.71;;
46393;Laerm;32099;53.588;10.176;2023-08-01T10:08:59;58.29;42.18;77.29;;
46393;Laerm;32099;53.588;10.176;2023-08-01T10:11:26;61.93;41.97;76.03;;
46393;Laerm;32099;53.588;10.176;2023-08-01T10:13:51;55.64;42.70;71.41;;
46393;Laerm;32099;53.588;10.176;2023-08-01T10:16:17;54.87;43.60;68.85;;
46393;Laerm;32099;53.588;10.176;2023-08-01T10:18:43;54.80;42.95;80.12;;
46393;Laerm;32099;53.588;10.176;2023-08-01T10:21:14;50.23;43.63;63.83;;
46393;Laerm;32099;53.588;10.176;2023-08-01T10:23:40;53.65;44.30;71.23;;
46393;Laerm;32099;53.588;10.176;2023-08-01T10:26:07;66.87;42.68;85.49;;
46393;Laerm;32099;53.588;10.176;2023-08-01T10:28:38;65.32;43.93;87.82;;
46393;Laerm;32099;53.588;10.176;2023-08-01T10:31:14;49.98;43.24;61.82;;
46393;Laerm;32099;53.588;10.176;2023-08-01T10:33:42;56.33;41.71;69.30;;
46393;Laerm;32099;53.588;10.176;2023-08-01T10:36:15;56.67;43.97;72.34;;
46393;Laerm;32099;53.588;10.176;2023-08-01T10:38:54;55.89;40.69;73.76;;
46393;Laerm;32099;53.588;10.176;2023-08-01T10:41:31;56.24;42.64;72.32;;
46393;Laerm;32099;53.588;10.176;2023-08-01T10:46:51;53.00;42.29;70.03;;
46393;Laerm;32099;53.588;10.176;2023-08-01T10:49:18;51.22;41.90;65.66;;
46393;Laerm;32099;53.588;10.176;2023-08-01T10:51:45;54.20;41.89;72.61;;
46393;Laerm;32099;53.588;10.176;2023-08-01T10:54:21;49.29;42.67;64.87;;
46393;Laerm;32099;53.588;10.176;2023-08-01T10:56:49;58.47;43.65;69.93;;
46393;Laerm;32099;53.588;10.176;2023-08-01T10:59:15;60.75;52.31;69.45;;
46393;Laerm;32099;53.588;10.176;2023-08-01T11:01:49;57.12;46.16;71.29;;
46393;Laerm;32099;53.588;10.176;2023-08-01T11:04:20;57.15;45.72;68.92;;
46393;Laerm;32099;53.588;10.176;2023-08-01T11:06:50;53.66;38.09;68.64;;
46393;Laerm;32099;53.588;10.176;2023-08-01T11:09:21;54.40;37.38;74.46;;
46393;Laerm;32099;53.588;10.176;2023-08-01T11:11:55;49.95;37.69;61.79;;
46393;Laerm;32099;53.588;10.176;2023-08-01T11:14:26;58.86;44.03;69.32;;
46393;Laerm;32099;53.588;10.176;2023-08-01T11:16:54;60.22;40.14;74.50;;
46393;Laerm;32099;53.588;10.176;2023-08-01T11:21:45;64.89;46.70;75.65;;
46393;Laerm;32099;53.588;10.176;2023-08-01T11:24:10;52.07;44.66;65.89;;
46393;Laerm;32099;53.588;10.176;2023-08-01T11:26:40;57.75;43.72;73.29;;
46393;Laerm;32099;53.588;10.176;2023-08-01T11:29:05;52.47;42.55;68.29;;
46393;Laerm;32099;53.588;10.176;2023-08-01T11:31:31;50.78;42.19;65.70;;
46393;Laerm;32099;53.588;10.176;2023-08-01T11:33:59;59.87;43.62;70.06;;
46393;Laerm;32099;53.588;10.176;2023-08-01T11:36:26;68.39;61.02;73.97;;
46393;Laerm;32099;53.588;10.176;2023-08-01T11:38:52;65.27;57.08;73.03;;
46393;Laerm;32099;53.588;10.176;2023-08-01T11:41:17;61.74;50.82;72.24;;
46393;Laerm;32099;53.588;10.176;2023-08-01T11:43:43;58.07;48.60;72.99;;
46393;Laerm;32099;53.588;10.176;2023-08-01T11:46:09;56.01;46.13;69.33;;
46393;Laerm;32099;53.588;10.176;2023-08-01T11:48:35;49.59;44.92;66.24;;
46393;Laerm;32099;53.588;10.176;2023-08-01T11:51:01;54.89;46.78;68.10;;
46393;Laerm;32099;53.588;10.176;2023-08-01T11:53:27;53.45;46.24;68.23;;
46393;Laerm;32099;53.588;10.176;2023-08-01T11:55:53;53.89;43.53;71.60;;
46393;Laerm;32099;53.588;10.176;2023-08-01T11:58:47;54.07;40.60;70.20;;
46393;Laerm;32099;53.588;10.176;2023-08-01T12:01:13;49.55;39.65;66.39;;
46393;Laerm;32099;53.588;10.176;2023-08-01T12:03:46;41.65;37.99;55.73;;
46393;Laerm;32099;53.588;10.176;2023-08-01T12:06:13;51.01;38.82;69.52;;
46393;Laerm;32099;53.588;10.176;2023-08-01T12:08:42;51.35;41.15;65.00;;
46393;Laerm;32099;53.588;10.176;2023-08-01T12:11:19;53.58;42.38;69.39;;
46393;Laerm;32099;53.588;10.176;2023-08-01T12:13:46;52.26;47.26;63.66;;
46393;Laerm;32099;53.588;10.176;2023-08-01T12:16:11;47.84;42.21;59.60;;
46393;Laerm;32099;53.588;10.176;2023-08-01T12:18:38;48.27;39.46;64.34;;
46393;Laerm;32099;53.588;10.176;2023-08-01T12:21:04;51.86;38.07;69.10;;
46393;Laerm;32099;53.588;10.176;2023-08-01T12:23:30;49.59;37.69;68.15;;
46393;Laerm;32099;53.588;10.176;2023-08-01T12:25:56;51.48;37.42;68.74;;
46393;Laerm;32099;53.588;10.176;2023-08-01T12:28:21;50.51;36.68;67.26;;
46393;Laerm;32099;53.588;10.176;2023-08-01T12:30:46;40.70;36.81;55.65;;
46393;Laerm;32099;53.588;10.176;2023-08-01T12:33:12;46.22;36.55;61.87;;
46393;Laerm;32099;53.588;10.176;2023-08-01T12:35:41;53.63;36.20;71.49;;
46393;Laerm;32099;53.588;10.176;2023-08-01T12:38:09;41.18;36.24;53.59;;
46393;Laerm;32099;53.588;10.176;2023-08-01T12:40:35;52.26;35.04;70.02;;
46393;Laerm;32099;53.588;10.176;2023-08-01T12:43:00;54.54;35.46;73.43;;
46393;Laerm;32099;53.588;10.176;2023-08-01T12:45:25;50.47;37.18;71.20;;
46393;Laerm;32099;53.588;10.176;2023-08-01T12:47:51;51.41;35.67;69.09;;
46393;Laerm;32099;53.588;10.176;2023-08-01T12:50:16;51.34;35.13;69.86;;
46393;Laerm;32099;53.588;10.176;2023-08-01T12:52:41;46.94;34.87;64.59;;
46393;Laerm;32099;53.588;10.176;2023-08-01T12:55:07;50.02;35.29;68.59;;
46393;Laerm;32099;53.588;10.176;2023-08-01T12:57:33;47.51;35.59;64.82;;
46393;Laerm;32099;53.588;10.176;2023-08-01T12:59:58;46.58;35.98;61.71;;
46393;Laerm;32099;53.588;10.176;2023-08-01T13:02:24;48.59;37.04;65.18;;
46393;Laerm;32099;53.588;10.176;2023-08-01T13:04:50;51.64;37.88;67.18;;
46393;Laerm;32099;53.588;10.176;2023-08-01T13:07:16;50.85;38.67;68.67;;
46393;Laerm;32099;53.588;10.176;2023-08-01T13:09:41;47.11;37.30;64.91;;
46393;Laerm;32099;53.588;10.176;2023-08-01T13:12:07;47.15;36.38;59.46;;
46393;Laerm;32099;53.588;10.176;2023-08-01T13:14:32;52.13;39.23;67.85;;
46393;Laerm;32099;53.588;10.176;2023-08-01T13:16:58;47.59;41.10;56.40;;
46393;Laerm;32099;53.588;10.176;2023-08-01T13:19:24;56.59;46.53;65.96;;
46393;Laerm;32099;53.588;10.176;2023-08-01T13:21:49;57.37;41.59;71.62;;
46393;Laerm;32099;53.588;10.176;2023-08-01T13:24:15;52.17;42.59;66.72;;
46393;Laerm;32099;53.588;10.176;2023-08-01T13:26:40;44.77;39.97;59.64;;
46393;Laerm;32099;53.588;10.176;2023-08-01T13:29:05;48.47;39.49;64.65;;
46393;Laerm;32099;53.588;10.176;2023-08-01T13:31:30;41.92;36.71;58.26;;
46393;Laerm;32099;53.588;10.176;2023-08-01T13:33:56;41.27;36.75;54.92;;